Time;durP1;ratioP1;P1;durP2;ratioP2;P2;SDS_P1;SDS_P2;PMS_P1;PMS_P2;Temp;Humidity;BMP_temperature;BMP_pressure;BME280_temperature;BME280_humidity;BME280_pressure;Samples;Min_cycle;Max_cycle;Signal;HPM_P1;HPM_P2
2023/10/11 00:02:59;;;;;;;38.60;18.05;;;16.90;99.90;;;;;;4895631;29;20450;-80
2023/10/11 00:05:28;;;;;;;38.38;18.48;;;16.90;99.90;;;;;;4895492;29;20908;-80
2023/10/11 00:07:58;;;;;;;31.63;17.83;;;16.90;99.90;;;;;;4894859;29;20509;-80
2023/10/11 00:10:23;;;;;;;37.40;17.55;;;16.80;99.90;;;;;;4896591;29;20429;-79
2023/10/11 00:12:58;;;;;;;35.97;18.00;;;16.80;99.90;;;;;;4883059;29;20425;-80
2023/10/11 00:15:29;;;;;;;36.53;18.48;;;17.00;99.90;;;;;;4896881;29;20442;-81
2023/10/11 00:17:57;;;;;;;37.15;17.90;;;17.10;99.90;;;;;;4883457;29;20478;-80
2023/10/11 00:20:31;;;;;;;36.03;18.75;;;16.90;99.90;;;;;;4893105;29;20551;-81
2023/10/11 00:22:59;;;;;;;36.40;18.00;;;16.90;99.90;;;;;;4893547;29;20438;-79
2023/10/11 00:25:25;;;;;;;35.83;18.05;;;16.90;99.90;;;;;;4897457;29;20964;-79
2023/10/11 00:27:52;;;;;;;40.17;18.33;;;17.00;99.90;;;;;;4881970;29;20500;-79
2023/10/11 00:30:18;;;;;;;35.13;17.40;;;16.80;99.90;;;;;;4892990;29;20437;-80
2023/10/11 00:32:47;;;;;;;41.33;18.52;;;16.90;99.90;;;;;;4899841;29;20425;-80
2023/10/11 00:35:20;;;;;;;42.58;18.95;;;17.00;99.90;;;;;;4882795;29;20436;-79
2023/10/11 00:37:51;;;;;;;41.35;18.50;;;16.90;99.90;;;;;;4881829;29;20421;-80
2023/10/11 00:40:32;;;;;;;36.83;18.33;;;16.80;99.90;;;;;;4881443;29;20431;-79
2023/10/11 00:42:58;;;;;;;39.83;19.30;;;16.80;99.90;;;;;;4886778;29;20411;-80
2023/10/11 00:45:30;;;;;;;42.17;19.08;;;16.90;99.90;;;;;;4898274;29;20411;-80
2023/10/11 00:47:56;;;;;;;43.42;19.08;;;16.80;99.90;;;;;;4899781;29;20425;-80
2023/10/11 00:50:23;;;;;;;39.80;18.27;;;16.90;99.90;;;;;;4901424;29;20494;-80
2023/10/11 00:52:50;;;;;;;43.58;19.17;;;16.90;99.90;;;;;;4872131;29;20842;-80
2023/10/11 00:55:19;;;;;;;39.55;19.48;;;16.90;99.90;;;;;;4890884;29;20457;-80
2023/10/11 00:57:47;;;;;;;47.65;19.77;;;16.80;99.90;;;;;;4896799;29;20793;-80
2023/10/11 01:00:20;;;;;;;39.97;18.63;;;16.90;99.90;;;;;;4896431;29;20460;-80
2023/10/11 01:02:47;;;;;;;40.65;19.15;;;16.90;99.90;;;;;;4915322;29;20419;-80
2023/10/11 01:05:19;;;;;;;37.95;19.60;;;16.90;99.90;;;;;;4888303;29;20901;-80
2023/10/11 01:07:45;;;;;;;44.27;19.17;;;16.70;99.90;;;;;;4882337;29;20419;-80
2023/10/11 01:10:12;;;;;;;42.42;19.42;;;16.90;99.90;;;;;;4899553;29;20419;-80
2023/10/11 01:12:40;;;;;;;40.97;18.88;;;16.70;99.90;;;;;;4894752;29;20444;-80
2023/10/11 01:15:11;;;;;;;40.88;18.88;;;16.80;99.90;;;;;;4896042;29;20792;-79
2023/10/11 01:17:38;;;;;;;42.67;19.77;;;16.70;99.90;;;;;;4898090;29;20506;-80
2023/10/11 01:20:14;;;;;;;47.65;19.83;;;16.90;99.90;;;;;;4890091;29;20785;-80
2023/10/11 01:22:44;;;;;;;43.58;18.98;;;17.00;99.90;;;;;;4901945;29;20519;-80
2023/10/11 01:25:18;;;;;;;41.75;19.02;;;16.80;99.90;;;;;;4891623;29;20434;-80
2023/10/11 01:27:48;;;;;;;45.17;19.48;;;16.80;99.90;;;;;;4898086;29;20420;-80
2023/10/11 01:30:15;;;;;;;43.58;19.35;;;16.70;99.90;;;;;;4899280;29;20446;-80
2023/10/11 01:32:43;;;;;;;40.28;19.33;;;16.80;99.90;;;;;;4899056;29;20776;-80
2023/10/11 01:35:13;;;;;;;46.30;20.15;;;16.90;99.90;;;;;;4901048;29;20438;-80
2023/10/11 01:37:42;;;;;;;47.42;20.55;;;16.70;99.90;;;;;;4883451;29;20419;-79
2023/10/11 01:40:20;;;;;;;41.63;19.48;;;16.80;99.90;;;;;;4898062;29;20434;-80
2023/10/11 01:42:52;;;;;;;40.92;19.27;;;16.80;99.90;;;;;;4891141;29;20424;-79
2023/10/11 01:45:23;;;;;;;39.90;19.88;;;16.70;99.90;;;;;;4880418;29;20428;-79
2023/10/11 01:47:50;;;;;;;42.67;19.67;;;16.60;99.90;;;;;;4901030;29;20468;-79
2023/10/11 01:50:17;;;;;;;39.08;19.92;;;16.70;99.90;;;;;;4880734;29;20432;-80
2023/10/11 01:52:47;;;;;;;41.55;20.20;;;16.60;99.90;;;;;;4888216;29;20415;-82
2023/10/11 01:55:15;;;;;;;41.45;20.05;;;16.50;99.90;;;;;;4899698;29;20430;-80
2023/10/11 01:57:48;;;;;;;48.42;20.90;;;16.70;99.90;;;;;;4896342;29;20860;-80
2023/10/11 02:00:29;;;;;;;46.55;20.80;;;16.60;99.90;;;;;;4896430;29;20435;-80
2023/10/11 02:02:58;;;;;;;42.55;21.02;;;16.50;99.90;;;;;;4886120;29;20431;-80
2023/10/11 02:05:24;;;;;;;45.83;21.23;;;16.50;99.90;;;;;;4889235;29;20511;-81
2023/10/11 02:07:50;;;;;;;43.97;20.20;;;16.80;99.90;;;;;;4889717;29;20430;-80
2023/10/11 02:10:25;;;;;;;38.80;20.48;;;16.40;99.90;;;;;;4881287;29;20755;-81
2023/10/11 02:12:55;;;;;;;47.80;21.25;;;16.50;99.90;;;;;;4902944;29;20431;-80
2023/10/11 02:15:21;;;;;;;45.90;21.27;;;16.70;99.90;;;;;;4895802;29;20449;-81
2023/10/11 02:17:54;;;;;;;43.50;19.47;;;16.60;99.90;;;;;;4887834;29;20423;-81
2023/10/11 02:20:21;;;;;;;40.70;19.90;;;16.70;99.90;;;;;;4877322;29;20444;-75
2023/10/11 02:22:52;;;;;;;46.13;20.35;;;16.60;99.90;;;;;;4882816;29;20473;-75
2023/10/11 02:25:27;;;;;;;42.00;20.40;;;16.30;99.90;;;;;;4896528;29;20941;-75
2023/10/11 02:27:54;;;;;;;40.30;19.75;;;16.60;99.90;;;;;;4879003;29;20443;-75
2023/10/11 02:30:22;;;;;;;43.70;19.88;;;16.60;99.90;;;;;;4879914;29;20464;-74
2023/10/11 02:32:52;;;;;;;47.55;20.17;;;16.40;99.90;;;;;;4882498;29;20792;-73
2023/10/11 02:35:19;;;;;;;44.88;20.08;;;16.50;99.90;;;;;;4881671;29;20788;-75
2023/10/11 02:37:48;;;;;;;42.22;19.65;;;16.60;99.90;;;;;;4897105;29;20417;-75
2023/10/11 02:40:16;;;;;;;42.17;19.67;;;16.50;99.90;;;;;;4896767;29;20821;-74
2023/10/11 02:42:46;;;;;;;45.20;19.85;;;16.30;99.90;;;;;;4893335;29;20485;-75
2023/10/11 02:45:18;;;;;;;43.88;19.50;;;16.40;99.90;;;;;;4891467;29;20428;-75
2023/10/11 02:47:59;;;;;;;45.25;19.70;;;16.50;99.90;;;;;;4893903;29;20433;-76
2023/10/11 02:50:26;;;;;;;43.40;19.08;;;16.50;99.90;;;;;;4890027;29;20442;-75
2023/10/11 02:52:59;;;;;;;42.30;19.95;;;16.40;99.90;;;;;;4877970;29;20941;-75
2023/10/11 02:55:27;;;;;;;45.03;19.40;;;16.30;99.90;;;;;;4892853;29;20851;-76
2023/10/11 02:58:08;;;;;;;39.25;18.30;;;16.40;99.90;;;;;;4891566;29;20424;-75
2023/10/11 03:00:35;;;;;;;44.58;19.60;;;16.50;99.90;;;;;;4911439;29;20784;-76
2023/10/11 03:03:07;;;;;;;40.92;18.90;;;16.40;99.90;;;;;;4891859;29;20486;-76
2023/10/11 03:05:37;;;;;;;43.55;19.30;;;16.60;99.90;;;;;;4880564;29;20506;-75
2023/10/11 03:08:20;;;;;;;43.55;17.83;;;16.40;99.90;;;;;;4862248;29;20440;-76
2023/10/11 03:10:53;;;;;;;41.50;18.17;;;16.50;99.90;;;;;;4895727;29;20435;-75
2023/10/11 03:13:29;;;;;;;38.40;17.98;;;16.20;99.90;;;;;;4878302;29;20495;-75
2023/10/11 03:15:59;;;;;;;37.28;18.27;;;16.50;99.90;;;;;;4882182;29;20436;-74
2023/10/11 03:18:33;;;;;;;45.30;18.27;;;16.40;99.90;;;;;;4896379;29;20908;-74
2023/10/11 03:21:15;;;;;;;38.10;17.57;;;16.30;99.90;;;;;;4895450;29;20908;-74
2023/10/11 03:23:45;;;;;;;35.58;17.70;;;16.20;99.90;;;;;;4907857;29;20424;-75
2023/10/11 03:26:22;;;;;;;38.57;17.87;;;16.40;99.90;;;;;;4889521;29;20493;-75
2023/10/11 03:28:57;;;;;;;37.83;17.00;;;16.50;99.90;;;;;;4894919;29;20434;-75
2023/10/11 03:31:28;;;;;;;46.17;18.17;;;16.60;99.90;;;;;;4893961;29;20438;-75
2023/10/11 03:34:10;;;;;;;33.20;17.00;;;16.30;99.90;;;;;;4891331;29;20420;-75
2023/10/11 03:36:49;;;;;;;43.60;17.27;;;16.50;99.90;;;;;;4887197;29;20419;-75
2023/10/11 03:42:07;;;;;;;38.97;16.75;;;16.60;99.90;;;;;;4893301;29;20582;-74
2023/10/11 03:44:39;;;;;;;36.28;16.25;;;16.40;99.90;;;;;;4877601;29;20419;-75
2023/10/11 03:47:09;;;;;;;38.17;17.83;;;16.50;99.90;;;;;;4869308;29;20431;-75
2023/10/11 03:52:19;;;;;;;39.80;15.88;;;16.60;99.90;;;;;;4894195;29;20419;-75
2023/10/11 03:54:46;;;;;;;33.97;15.90;;;16.50;99.90;;;;;;4893953;29;20969;-76
2023/10/11 03:57:12;;;;;;;37.83;16.48;;;16.50;99.90;;;;;;4897918;29;21017;-76
2023/10/11 03:59:48;;;;;;;33.70;15.90;;;16.70;99.90;;;;;;4897183;29;20469;-76
2023/10/11 04:02:17;;;;;;;37.33;16.38;;;16.50;99.90;;;;;;4886252;29;20418;-76
2023/10/11 04:04:43;;;;;;;38.60;16.02;;;16.60;99.90;;;;;;4889543;29;20430;-75
2023/10/11 04:07:13;;;;;;;38.97;16.40;;;16.30;99.90;;;;;;4889507;29;20430;-76
2023/10/11 04:09:45;;;;;;;41.10;16.58;;;16.40;99.90;;;;;;4885280;29;20430;-75
2023/10/11 04:12:12;;;;;;;38.58;16.77;;;16.50;99.90;;;;;;4878544;29;20424;-76
2023/10/11 04:14:39;;;;;;;36.42;15.52;;;16.60;99.90;;;;;;4880810;29;20516;-75
2023/10/11 04:17:19;;;;;;;35.15;16.55;;;16.40;99.90;;;;;;4881843;29;20534;-75
2023/10/11 04:19:44;;;;;;;40.70;15.53;;;16.60;99.90;;;;;;4897142;29;20419;-76
2023/10/11 04:22:13;;;;;;;37.90;16.07;;;16.30;99.90;;;;;;4879769;29;20426;-74
2023/10/11 04:24:40;;;;;;;35.08;15.55;;;16.40;99.90;;;;;;4893250;29;20506;-75
2023/10/11 04:29:51;;;;;;;37.53;15.52;;;16.50;99.90;;;;;;4880090;29;20511;-75
2023/10/11 04:32:41;;;;;;;37.60;16.17;;;16.70;99.90;;;;;;4893891;29;20427;-75
2023/10/11 04:37:54;;;;;;;39.75;16.10;;;16.30;99.90;;;;;;4877946;29;20509;-75
2023/10/11 04:41:14;;;;;;;38.75;16.60;;;16.50;99.90;;;;;;4879251;29;20859;-76
2023/10/11 04:43:20;;;;;;;36.03;16.38;;;16.40;99.90;;;;;;4901537;29;20426;-76
2023/10/11 04:45:48;;;;;;;40.22;16.08;;;16.30;99.90;;;;;;4898501;29;20895;-75
2023/10/11 04:48:36;;;;;;;37.10;15.10;;;16.20;99.90;;;;;;4898054;29;20431;-75
2023/10/11 04:51:04;;;;;;;32.00;15.52;;;16.40;99.90;;;;;;4892570;29;20452;-76
2023/10/11 04:54:13;;;;;;;34.97;16.02;;;16.60;99.90;;;;;;4894508;29;20422;-75
2023/10/11 04:59:11;;;;;;;38.10;15.65;;;16.50;99.90;;;;;;4893111;29;20806;-75
2023/10/11 05:04:15;;;;;;;34.40;14.85;;;16.70;99.90;;;;;;4884442;29;20421;-75
2023/10/11 05:06:44;;;;;;;37.75;16.33;;;16.50;99.90;;;;;;4884739;29;20928;-75
2023/10/11 05:09:21;;;;;;;38.03;15.88;;;16.30;99.90;;;;;;4866112;29;20415;-74
2023/10/11 05:11:50;;;;;;;34.50;15.85;;;16.40;99.90;;;;;;4897096;29;20760;-74
2023/10/11 05:14:29;;;;;;;35.85;16.65;;;16.80;99.90;;;;;;4898786;29;20434;-74
2023/10/11 05:17:16;;;;;;;36.10;16.05;;;16.30;99.90;;;;;;4896428;29;20423;-74
2023/10/11 05:19:46;;;;;;;37.35;16.30;;;16.60;99.90;;;;;;4884451;29;20431;-75
2023/10/11 05:32:48;;;;;;;40.40;16.88;;;16.40;99.90;;;;;;4883259;29;20519;-75
2023/10/11 05:51:29;;;;;;;41.45;17.42;;;16.30;99.90;;;;;;4885340;29;20467;-75
2023/10/11 05:53:56;;;;;;;40.07;17.73;;;16.20;99.90;;;;;;4890286;29;20868;-74
2023/10/11 05:56:22;;;;;;;32.85;17.10;;;16.20;99.90;;;;;;4896933;29;20538;-74
2023/10/11 05:58:53;;;;;;;44.75;17.70;;;16.30;99.90;;;;;;4904425;29;20423;-74
2023/10/11 06:01:23;;;;;;;37.35;17.17;;;16.50;99.90;;;;;;4894042;29;20438;-75
2023/10/11 06:03:55;;;;;;;40.67;17.53;;;16.20;99.90;;;;;;4886289;29;20464;-74
2023/10/11 06:06:32;;;;;;;42.03;17.60;;;16.40;99.90;;;;;;4881189;29;20421;-74
2023/10/11 06:08:58;;;;;;;43.33;18.50;;;16.40;99.90;;;;;;4898000;29;20427;-74
2023/10/11 06:11:29;;;;;;;39.07;17.77;;;16.10;99.90;;;;;;4898210;29;20468;-75
2023/10/11 06:13:55;;;;;;;43.30;18.30;;;16.50;99.90;;;;;;4895654;29;20415;-74
2023/10/11 06:16:22;;;;;;;43.90;18.93;;;16.40;99.90;;;;;;4890227;29;21068;-74
2023/10/11 06:18:58;;;;;;;38.88;17.67;;;16.20;99.90;;;;;;4891731;29;20421;-74
2023/10/11 06:21:30;;;;;;;40.53;18.20;;;16.40;99.90;;;;;;4896394;29;21063;-74
2023/10/11 06:24:05;;;;;;;38.78;16.55;;;16.50;99.90;;;;;;4896012;29;20445;-75
2023/10/11 06:29:03;;;;;;;43.43;19.20;;;16.40;99.90;;;;;;4898207;29;20419;-74
2023/10/11 06:31:39;;;;;;;38.40;17.00;;;16.50;99.90;;;;;;4897284;29;20436;-75
2023/10/11 06:34:15;;;;;;;35.72;16.65;;;16.40;99.90;;;;;;4902868;29;20466;-74
2023/10/11 06:36:51;;;;;;;38.33;16.92;;;16.40;99.90;;;;;;4894023;29;20446;-74
2023/10/11 06:42:14;;;;;;;39.88;17.60;;;16.60;99.90;;;;;;4892227;29;20753;-74
2023/10/11 06:44:57;;;;;;;41.53;17.35;;;16.50;99.90;;;;;;4884892;29;20473;-75
2023/10/11 06:47:24;;;;;;;40.63;17.38;;;16.60;99.90;;;;;;4888092;29;20512;-76
2023/10/11 06:49:54;;;;;;;37.85;16.70;;;16.70;99.90;;;;;;4880127;29;20431;-75
2023/10/11 06:52:30;;;;;;;41.72;16.73;;;16.60;99.90;;;;;;4887734;29;20455;-75
2023/10/11 06:57:39;;;;;;;34.47;16.50;;;17.20;99.90;;;;;;4885121;29;20427;-75
2023/10/11 07:00:21;;;;;;;40.08;16.38;;;16.80;99.90;;;;;;4882375;29;20432;-74
2023/10/11 07:03:21;;;;;;;33.60;16.25;;;17.20;99.90;;;;;;4892933;29;20438;-75
2023/10/11 07:05:56;;;;;;;39.33;16.70;;;16.70;99.90;;;;;;4888586;29;20422;-75
2023/10/11 07:08:31;;;;;;;33.47;15.73;;;17.40;99.90;;;;;;4895848;29;20437;-73
2023/10/11 07:11:04;;;;;;;38.63;16.77;;;16.80;99.90;;;;;;4891431;29;20500;-74
2023/10/11 07:13:49;;;;;;;36.75;16.83;;;17.20;99.90;;;;;;4892210;29;20511;-75
2023/10/11 07:16:18;;;;;;;34.40;16.50;;;16.70;99.90;;;;;;4863796;29;20440;-75
2023/10/11 07:18:45;;;;;;;33.22;16.30;;;16.90;99.90;;;;;;4888105;29;20996;-75
2023/10/11 07:21:13;;;;;;;35.67;16.23;;;16.70;99.90;;;;;;4886621;29;20430;-75
2023/10/11 07:28:59;;;;;;;37.17;15.63;;;16.90;99.90;;;;;;4881392;29;20428;-75
2023/10/11 07:31:35;;;;;;;35.75;16.30;;;16.90;99.90;;;;;;4902472;29;20746;-75
2023/10/11 07:34:10;;;;;;;36.75;15.43;;;17.10;99.90;;;;;;4886380;29;20426;-73
2023/10/11 07:36:37;;;;;;;44.73;16.53;;;17.10;99.90;;;;;;4881850;29;20518;-75
2023/10/11 07:41:49;;;;;;;39.38;16.20;;;17.10;99.90;;;;;;4904522;29;20439;-74
2023/10/11 07:44:19;;;;;;;39.60;15.98;;;17.10;99.90;;;;;;4894811;29;20537;-73
2023/10/11 07:46:45;;;;;;;41.45;16.30;;;17.10;99.90;;;;;;4895588;29;20420;-73
2023/10/11 07:49:37;;;;;;;38.95;16.42;;;17.20;99.90;;;;;;4881662;29;20420;-74
2023/10/11 07:52:01;;;;;;;38.90;16.55;;;17.10;99.90;;;;;;4886549;29;20989;-74
2023/10/11 07:54:27;;;;;;;38.30;16.90;;;17.20;99.90;;;;;;4900548;29;20448;-74
2023/10/11 07:56:57;;;;;;;45.05;17.80;;;16.90;99.90;;;;;;4888377;29;20435;-74
2023/10/11 07:59:27;;;;;;;44.08;17.23;;;17.10;99.90;;;;;;4880327;29;20435;-74
2023/10/11 08:01:55;;;;;;;37.50;16.58;;;17.10;99.90;;;;;;4887412;29;20468;-74
2023/10/11 08:04:22;;;;;;;38.63;17.33;;;17.20;99.90;;;;;;4883233;29;20434;-75
2023/10/11 08:06:59;;;;;;;41.53;17.02;;;17.00;99.90;;;;;;4889829;29;20799;-74
2023/10/11 08:09:28;;;;;;;43.85;17.95;;;17.20;99.90;;;;;;4894725;29;20434;-74
2023/10/11 08:11:57;;;;;;;33.35;16.38;;;17.20;99.90;;;;;;4889467;29;20432;-74
2023/10/11 08:14:28;;;;;;;42.63;16.33;;;17.20;99.90;;;;;;4881784;29;20444;-74
2023/10/11 08:16:56;;;;;;;33.30;14.35;;;17.20;99.90;;;;;;4882680;29;20528;-74
2023/10/11 08:19:22;;;;;;;30.70;14.30;;;17.60;99.90;;;;;;4891676;29;20468;-75
2023/10/11 08:21:57;;;;;;;28.85;14.13;;;17.40;99.90;;;;;;4881238;29;20436;-75
2023/10/11 08:24:28;;;;;;;34.47;14.13;;;17.50;99.90;;;;;;4882814;29;20530;-75
2023/10/11 08:27:07;;;;;;;28.65;13.18;;;17.40;99.90;;;;;;4884506;29;20591;-75
2023/10/11 08:29:33;;;;;;;32.90;13.83;;;17.50;99.90;;;;;;4897945;29;20441;-75
2023/10/11 08:32:00;;;;;;;27.60;12.90;;;17.40;99.90;;;;;;4891854;29;20420;-75
2023/10/11 08:34:28;;;;;;;28.35;12.52;;;17.60;99.90;;;;;;4881407;29;20450;-74
2023/10/11 08:36:54;;;;;;;28.52;12.40;;;17.60;99.90;;;;;;4891351;29;20770;-75
2023/10/11 08:39:35;;;;;;;28.42;12.02;;;17.70;99.90;;;;;;4881553;29;20992;-74
2023/10/11 08:42:17;;;;;;;24.65;11.55;;;17.60;99.90;;;;;;4891390;29;20439;-74
2023/10/11 08:44:47;;;;;;;25.83;11.38;;;17.60;99.90;;;;;;4888079;29;20780;-75
2023/10/11 08:47:13;;;;;;;27.77;11.13;;;17.60;99.90;;;;;;4890375;29;20793;-74
2023/10/11 08:49:48;;;;;;;22.77;10.95;;;17.70;99.90;;;;;;4891415;29;20441;-74
2023/10/11 08:52:21;;;;;;;23.33;11.55;;;17.70;99.90;;;;;;4887944;29;20424;-75
2023/10/11 08:54:48;;;;;;;28.75;10.57;;;17.60;99.90;;;;;;4879292;29;20440;-75
2023/10/11 08:57:14;;;;;;;19.63;10.25;;;17.50;99.90;;;;;;4883949;29;20445;-74
2023/10/11 08:59:50;;;;;;;22.15;10.95;;;17.50;99.90;;;;;;4890102;29;20443;-73
2023/10/11 09:02:17;;;;;;;21.92;11.00;;;17.70;99.90;;;;;;4873441;29;20572;-74
2023/10/11 09:04:56;;;;;;;25.20;11.45;;;17.80;99.90;;;;;;4890432;29;22134;-75
2023/10/11 09:07:44;;;;;;;21.02;10.57;;;17.40;99.90;;;;;;4880472;29;20452;-74
2023/10/11 09:10:30;;;;;;;22.10;10.35;;;17.60;99.90;;;;;;4891131;29;20477;-75
2023/10/11 09:12:57;;;;;;;23.88;10.48;;;17.60;99.90;;;;;;4885570;29;20509;-76
2023/10/11 09:15:45;;;;;;;23.70;10.30;;;17.90;99.90;;;;;;4875161;29;20548;-76
2023/10/11 09:18:13;;;;;;;18.30;9.57;;;17.80;99.90;;;;;;4887335;29;20433;-77
2023/10/11 09:20:40;;;;;;;20.33;10.00;;;17.90;99.90;;;;;;4883931;29;20432;-76
2023/10/11 09:23:06;;;;;;;20.03;9.83;;;17.70;99.90;;;;;;4884876;29;20436;-76
2023/10/11 09:25:49;;;;;;;20.17;10.00;;;17.70;99.90;;;;;;4887058;29;20443;-75
2023/10/11 09:28:18;;;;;;;19.13;9.90;;;17.70;99.90;;;;;;4886824;29;20446;-75
2023/10/11 09:30:44;;;;;;;19.90;9.45;;;17.90;99.90;;;;;;4888258;29;20447;-76
2023/10/11 09:33:17;;;;;;;20.80;9.80;;;18.00;99.90;;;;;;4885422;29;20420;-75
2023/10/11 09:35:48;;;;;;;19.48;9.52;;;18.00;99.90;;;;;;4880015;29;20471;-76
2023/10/11 09:38:19;;;;;;;17.58;8.75;;;18.00;99.90;;;;;;4880462;29;20463;-77
2023/10/11 09:40:45;;;;;;;16.10;8.73;;;18.10;99.90;;;;;;4871532;29;20483;-76
2023/10/11 09:43:16;;;;;;;19.02;8.48;;;18.20;99.90;;;;;;4872594;29;20436;-77
2023/10/11 09:45:44;;;;;;;15.60;8.23;;;18.30;99.90;;;;;;4907919;29;20504;-77
2023/10/11 09:48:17;;;;;;;21.45;9.45;;;18.20;99.90;;;;;;4898546;29;20518;-77
2023/10/11 09:50:44;;;;;;;17.70;8.20;;;18.30;99.90;;;;;;4880200;29;20435;-77
2023/10/11 09:53:14;;;;;;;16.58;8.25;;;18.60;99.90;;;;;;4886850;29;20447;-76
2023/10/11 09:56:15;;;;;;;14.75;7.35;;;18.60;99.90;;;;;;4895385;29;20447;-77
2023/10/11 09:59:13;;;;;;;14.93;7.90;;;18.30;99.90;;;;;;4871995;29;20426;-76
2023/10/11 10:01:47;;;;;;;13.77;6.60;;;18.60;99.90;;;;;;4881725;29;20432;-77
2023/10/11 10:04:13;;;;;;;15.52;6.80;;;18.50;99.90;;;;;;4880971;29;20455;-77
2023/10/11 10:06:58;;;;;;;14.87;6.37;;;18.50;99.90;;;;;;4884349;29;20423;-78
2023/10/11 10:09:24;;;;;;;11.68;6.70;;;18.70;99.90;;;;;;4893355;29;20472;-78
2023/10/11 10:12:11;;;;;;;13.32;6.47;;;18.90;99.90;;;;;;4888898;29;20954;-78
2023/10/11 10:14:38;;;;;;;10.70;6.07;;;19.00;99.90;;;;;;4886040;29;20937;-77
2023/10/11 10:17:18;;;;;;;11.48;6.05;;;18.80;99.90;;;;;;4889816;29;21074;-78
2023/10/11 10:19:47;;;;;;;11.10;5.85;;;19.00;99.90;;;;;;4881467;29;20447;-77
2023/10/11 10:22:17;;;;;;;12.27;5.63;;;19.00;99.90;;;;;;4893482;29;20429;-77
2023/10/11 10:24:44;;;;;;;11.75;5.80;;;18.90;99.90;;;;;;4892240;29;20488;-78
2023/10/11 10:27:33;;;;;;;12.32;5.28;;;19.00;99.90;;;;;;4878060;29;20434;-77
2023/10/11 10:30:00;;;;;;;15.90;5.95;;;18.90;99.90;;;;;;4894043;29;20427;-77
2023/10/11 10:32:26;;;;;;;13.82;5.65;;;18.70;99.90;;;;;;4869034;29;20528;-76
2023/10/11 10:35:36;;;;;;;10.98;5.82;;;19.00;99.90;;;;;;4878164;29;20947;-78
2023/10/11 10:38:08;;;;;;;15.57;6.07;;;18.60;99.90;;;;;;4879734;29;20425;-75
2023/10/11 10:40:37;;;;;;;11.98;5.88;;;18.90;99.90;;;;;;4884458;29;20425;-79
2023/10/11 10:43:14;;;;;;;12.75;6.53;;;19.10;99.90;;;;;;4886197;29;20424;-78
2023/10/11 10:45:40;;;;;;;12.00;5.65;;;18.80;99.90;;;;;;4888245;29;20435;-77
2023/10/11 10:48:15;;;;;;;11.43;5.40;;;19.10;99.90;;;;;;4880991;29;20486;-77
2023/10/11 10:51:01;;;;;;;12.82;5.80;;;19.00;99.90;;;;;;4893732;29;20434;-77
2023/10/11 10:53:50;;;;;;;10.98;5.60;;;19.30;99.90;;;;;;4890847;29;20947;-78
2023/10/11 10:56:35;;;;;;;10.70;5.25;;;19.50;99.90;;;;;;4895456;29;20442;-76
2023/10/11 10:59:04;;;;;;;11.55;5.43;;;19.40;99.90;;;;;;4874452;29;20427;-78
2023/10/11 11:01:33;;;;;;;12.35;5.43;;;19.30;99.90;;;;;;4877819;29;20489;-77
2023/10/11 11:04:09;;;;;;;13.50;5.43;;;19.50;99.90;;;;;;4891530;29;20475;-77
2023/10/11 11:06:46;;;;;;;8.50;4.97;;;19.40;99.90;;;;;;4896556;29;20515;-78
2023/10/11 11:09:15;;;;;;;11.70;5.33;;;19.60;99.90;;;;;;4893860;29;20474;-77
2023/10/11 11:11:41;;;;;;;11.75;4.85;;;19.60;99.90;;;;;;4897061;29;20415;-77
2023/10/11 11:14:15;;;;;;;10.35;4.47;;;19.80;99.90;;;;;;4891613;29;22912;-77
2023/10/11 11:16:54;;;;;;;10.27;4.80;;;19.90;99.90;;;;;;4878376;29;20446;-78
2023/10/11 11:19:25;;;;;;;10.90;4.40;;;19.80;99.90;;;;;;4879498;29;20425;-76
2023/10/11 11:22:13;;;;;;;11.18;4.18;;;20.00;99.90;;;;;;4892744;29;20469;-78
2023/10/11 11:24:43;;;;;;;9.48;4.05;;;20.20;99.90;;;;;;4877788;29;20784;-78
2023/10/11 11:27:25;;;;;;;9.73;3.95;;;20.10;99.90;;;;;;4886347;29;20477;-77
2023/10/11 11:29:51;;;;;;;10.13;4.05;;;20.00;99.90;;;;;;4877826;29;20428;-77
2023/10/11 11:32:18;;;;;;;8.77;3.88;;;20.00;99.90;;;;;;4905364;29;20791;-78
2023/10/11 11:35:04;;;;;;;11.00;4.53;;;20.00;99.90;;;;;;4896481;29;20445;-76
2023/10/11 11:37:31;;;;;;;8.05;3.58;;;19.80;99.90;;;;;;4881646;29;20951;-78
2023/10/11 11:40:19;;;;;;;9.18;3.88;;;20.10;99.90;;;;;;4877848;29;21392;-78
2023/10/11 11:42:47;;;;;;;11.32;3.90;;;20.20;99.90;;;;;;4879713;29;20437;-78
2023/10/11 11:45:17;;;;;;;10.98;4.05;;;20.50;99.90;;;;;;4905893;29;20432;-77
2023/10/11 11:47:56;;;;;;;9.57;4.20;;;20.10;99.90;;;;;;4890366;29;20423;-79
2023/10/11 11:50:26;;;;;;;9.43;3.90;;;20.00;99.90;;;;;;4883111;29;20432;-77
2023/10/11 11:52:52;;;;;;;11.73;4.13;;;20.10;99.90;;;;;;4869896;29;20460;-78
2023/10/11 11:55:22;;;;;;;8.80;4.03;;;20.20;99.90;;;;;;4879357;29;20443;-76
2023/10/11 11:57:48;;;;;;;10.77;4.20;;;20.20;99.90;;;;;;4887883;29;20436;-77
2023/10/11 12:00:38;;;;;;;10.23;4.10;;;20.10;99.90;;;;;;4890839;29;20754;-79
2023/10/11 12:03:04;;;;;;;10.38;3.90;;;20.10;99.90;;;;;;4903782;29;20443;-78
2023/10/11 12:05:37;;;;;;;11.52;4.18;;;20.20;99.90;;;;;;4887759;29;20909;-76
2023/10/11 12:08:08;;;;;;;9.25;3.63;;;20.50;99.90;;;;;;4897429;29;20944;-76
2023/10/11 12:10:36;;;;;;;8.45;4.25;;;20.40;99.90;;;;;;4879582;29;20492;-78
2023/10/11 12:13:05;;;;;;;7.28;3.70;;;20.60;99.90;;;;;;4884984;29;20920;-76
2023/10/11 12:15:37;;;;;;;10.38;3.80;;;20.60;99.90;;;;;;4891338;29;20990;-76
2023/10/11 12:18:05;;;;;;;8.88;3.47;;;20.70;99.90;;;;;;4886415;29;20433;-76
2023/10/11 12:20:36;;;;;;;9.43;3.65;;;20.60;99.90;;;;;;4881359;29;20426;-76
2023/10/11 12:23:08;;;;;;;8.00;3.60;;;20.40;99.90;;;;;;4884880;29;20422;-76
2023/10/11 12:25:38;;;;;;;8.60;3.57;;;20.40;99.90;;;;;;4880409;29;20519;-75
2023/10/11 12:28:06;;;;;;;9.10;3.53;;;20.70;99.90;;;;;;4897722;29;20429;-75
2023/10/11 12:30:36;;;;;;;9.57;3.78;;;20.70;99.90;;;;;;4894467;29;20498;-75
2023/10/11 12:33:09;;;;;;;9.75;3.90;;;20.80;99.90;;;;;;4881500;29;20487;-75
2023/10/11 12:35:40;;;;;;;10.90;3.90;;;20.80;99.90;;;;;;4884443;29;20445;-75
2023/10/11 12:38:12;;;;;;;10.50;3.88;;;20.70;99.90;;;;;;4883582;29;20450;-76
2023/10/11 12:40:41;;;;;;;13.02;4.18;;;20.70;99.90;;;;;;4894847;29;20420;-76
2023/10/11 12:43:07;;;;;;;9.15;3.60;;;20.40;99.90;;;;;;4894346;29;20454;-76
2023/10/11 12:45:37;;;;;;;10.10;4.10;;;20.40;99.90;;;;;;4887505;29;20415;-75
2023/10/11 12:48:10;;;;;;;11.35;3.90;;;20.20;99.90;;;;;;4895556;29;20828;-75
2023/10/11 12:50:38;;;;;;;10.10;3.88;;;20.40;99.90;;;;;;4887082;29;20911;-74
2023/10/11 12:53:11;;;;;;;12.03;4.73;;;20.20;99.90;;;;;;4888088;29;20785;-75
2023/10/11 12:55:51;;;;;;;10.43;3.78;;;20.10;99.90;;;;;;4889370;29;20470;-76
2023/10/11 12:58:19;;;;;;;10.50;4.13;;;20.10;99.90;;;;;;4881968;29;20432;-76
2023/10/11 13:00:54;;;;;;;9.95;4.00;;;20.00;99.90;;;;;;4892409;29;20482;-74
2023/10/11 13:03:26;;;;;;;12.48;4.63;;;20.00;99.90;;;;;;4898131;29;20425;-75
2023/10/11 13:05:52;;;;;;;11.38;4.90;;;20.10;99.90;;;;;;4884686;29;20834;-75
2023/10/11 13:08:24;;;;;;;14.57;5.57;;;19.30;99.90;;;;;;4910060;29;20429;-75
2023/10/11 13:10:51;;;;;;;10.93;5.13;;;19.20;99.90;;;;;;4884972;29;20436;-75
2023/10/11 13:13:17;;;;;;;11.80;5.53;;;19.00;99.90;;;;;;4907958;29;20459;-75
2023/10/11 13:18:40;;;;;;;11.52;5.43;;;17.80;99.90;;;;;;4874120;29;20421;-75
2023/10/11 13:21:11;;;;;;;11.75;5.05;;;19.20;99.90;;;;;;4896280;29;20881;-74
2023/10/11 13:23:39;;;;;;;11.40;5.15;;;19.50;99.90;;;;;;4887423;29;20417;-75
2023/10/11 13:26:09;;;;;;;14.20;5.37;;;19.00;99.90;;;;;;4886018;29;20430;-76
2023/10/11 13:28:36;;;;;;;12.70;5.30;;;19.30;99.90;;;;;;4885243;29;20426;-75
2023/10/11 13:31:02;;;;;;;11.35;5.30;;;19.30;99.90;;;;;;4895854;29;20426;-76
2023/10/11 13:33:32;;;;;;;12.25;5.20;;;19.30;99.90;;;;;;4895566;29;20420;-76
2023/10/11 13:36:05;;;;;;;12.02;5.10;;;19.20;99.90;;;;;;4880013;29;20437;-75
2023/10/11 13:38:31;;;;;;;13.95;5.20;;;19.00;99.90;;;;;;4890703;29;20450;-75
2023/10/11 13:40:58;;;;;;;14.18;5.05;;;19.80;99.90;;;;;;4892644;29;20986;-75
2023/10/11 13:43:24;;;;;;;15.95;5.20;;;19.30;99.90;;;;;;4888044;29;20423;-75
2023/10/11 13:46:01;;;;;;;12.85;5.10;;;19.30;99.90;;;;;;4879583;29;20473;-75
2023/10/11 13:48:36;;;;;;;13.75;5.03;;;19.50;99.90;;;;;;4889800;29;20773;-75
2023/10/11 13:51:03;;;;;;;13.93;5.20;;;19.30;99.90;;;;;;4881652;29;20476;-76
2023/10/11 13:53:40;;;;;;;15.30;5.10;;;19.40;99.90;;;;;;4895834;29;20423;-76
2023/10/11 13:56:20;;;;;;;13.00;4.75;;;19.30;99.90;;;;;;4879204;29;20432;-75
2023/10/11 13:58:47;;;;;;;12.15;5.00;;;19.40;99.90;;;;;;4885153;29;20429;-75